EPSC/SZZ METAR and TAF weather

Enter ICAO airport designator
Station Type Date Time Source
EPSC METAR 2021/05/13 05:30 UTC NOAA

EPSC 130530Z 33007KT 3300 BR OVC002 11/11 Q1004


Station Type Date Time Source
EPSC Decoded METAR 2021/05/13 05:30 UTC NOAA

Szczecin, Poland (EPSC) 53-24N 014-37E 3M
May 13, 2021 - 01:30 AM EDT / 2021.05.13 0530 UTC
Wind: from the NNW (330 degrees) at 8 MPH (7 KT):0
Visibility: 2 mile(s):0
Sky conditions: overcast
Weather: mist
Temperature: 51 F (11 C)
Dew Point: 51 F (11 C)
Relative Humidity: 100%
Pressure (altimeter): 29.65 in. Hg (1004 hPa)
ob: EPSC 130530Z 33007KT 3300 BR OVC002 11/11 Q1004
cycle: 5

Station Type Date Time Source
EPSC TAF 2021/05/13 06:33 UTC NOAA

TAF EPSC 130530Z 1306/1406 33007KT 2000 BR OVC002
TEMPO 1306/1307 3500 BR BKN005
BECMG 1307/1310 9999 SCT030
TEMPO 1313/1317 VRB18G32KT 4000 TSRA BKN030CB
BECMG 1320/1322 3000 BR BKN007
BECMG 1322/1324 0800 FG BKN004 PROB40 1322/1406 0500 FG BKN002

Example: see airport list